createdAt,value
2018-11-22T00:00:53.573Z,22.00
2018-11-22T00:01:53.501Z,21.90
2018-11-22T00:02:53.474Z,21.60
2018-11-22T00:03:53.427Z,20.80
2018-11-22T00:04:53.385Z,21.60
2018-11-22T00:05:53.323Z,21.70
2018-11-22T00:06:53.304Z,21.10
2018-11-22T00:07:53.259Z,20.20
2018-11-22T00:08:53.230Z,20.50
2018-11-22T00:09:53.194Z,21.40
2018-11-22T00:10:53.098Z,21.30
2018-11-22T00:11:53.069Z,21.70
2018-11-22T00:12:53.023Z,20.00
2018-11-22T00:13:52.983Z,20.10
2018-11-22T00:14:52.929Z,19.80
2018-11-22T00:15:52.942Z,20.40
2018-11-22T00:16:52.861Z,21.20
2018-11-22T00:17:52.816Z,21.50
2018-11-22T00:18:52.748Z,20.70
2018-11-22T00:19:52.772Z,20.60
2018-11-22T00:20:52.699Z,22.20
2018-11-22T00:21:52.625Z,21.70
2018-11-22T00:22:52.598Z,21.40
2018-11-22T00:23:52.544Z,22.80
2018-11-22T00:24:52.514Z,22.70
2018-11-22T00:25:52.456Z,22.60
2018-11-22T00:26:52.436Z,21.90
2018-11-22T00:27:52.366Z,21.30
2018-11-22T00:28:52.357Z,22.70
2018-11-22T00:29:52.260Z,22.70
2018-11-22T00:30:52.247Z,23.00
2018-11-22T00:31:52.213Z,22.30
2018-11-22T00:32:52.141Z,22.10
2018-11-22T00:33:52.115Z,21.90
2018-11-22T00:34:52.079Z,22.70
2018-11-22T00:35:52.006Z,22.30
2018-11-22T00:36:51.996Z,22.60
2018-11-22T00:37:51.938Z,22.10
2018-11-22T00:38:51.878Z,23.50
2018-11-22T00:39:51.906Z,22.10
2018-11-22T00:40:51.833Z,21.70
2018-11-22T00:41:51.782Z,21.00
2018-11-22T00:42:51.730Z,21.00
2018-11-22T00:43:51.657Z,21.60
2018-11-22T00:44:51.611Z,21.20
2018-11-22T00:45:51.574Z,21.30
2018-11-22T00:47:01.728Z,21.30
2018-11-22T00:47:51.462Z,20.40
2018-11-22T00:48:51.438Z,21.00
2018-11-22T00:49:51.379Z,20.60
2018-11-22T00:50:51.327Z,21.00
2018-11-22T00:51:51.321Z,21.80
2018-11-22T00:52:51.248Z,21.50
2018-11-22T00:53:51.195Z,21.50
2018-11-22T00:54:51.150Z,21.30
2018-11-22T00:55:51.115Z,20.60
2018-11-22T00:56:51.070Z,21.10
2018-11-22T00:57:51.043Z,20.70
2018-11-22T00:58:50.979Z,21.20
2018-11-22T00:59:50.933Z,21.60
2018-11-22T01:00:50.886Z,20.80
2018-11-22T01:01:50.843Z,22.50
2018-11-22T01:02:50.823Z,22.50
2018-11-22T01:03:50.759Z,22.10
2018-11-22T01:04:50.715Z,20.60
2018-11-22T01:05:50.677Z,23.00
2018-11-22T01:06:50.628Z,21.80
2018-11-22T01:07:50.601Z,21.90
2018-11-22T01:08:50.536Z,21.90
2018-11-22T01:09:50.497Z,21.50
2018-11-22T01:10:50.453Z,22.30
2018-11-22T01:11:50.400Z,21.40
2018-11-22T01:12:50.387Z,21.60
2018-11-22T01:13:50.314Z,21.30
2018-11-22T01:14:50.269Z,21.30
2018-11-22T01:15:50.230Z,20.90
2018-11-22T01:16:50.187Z,20.50
2018-11-22T01:17:50.142Z,20.60
2018-11-22T01:18:50.122Z,21.10
2018-11-22T01:19:50.047Z,22.10
2018-11-22T01:20:50.007Z,20.90
2018-11-22T01:21:49.956Z,21.40
2018-11-22T01:22:49.913Z,22.10
2018-11-22T01:23:49.900Z,20.90
2018-11-22T01:24:49.837Z,21.50
2018-11-22T01:25:49.783Z,21.40
2018-11-22T01:26:49.740Z,20.70
2018-11-22T01:27:49.701Z,20.30
2018-11-22T01:28:49.685Z,21.00
2018-11-22T01:29:49.616Z,21.20
2018-11-22T01:30:49.569Z,21.50
2018-11-22T01:31:49.526Z,21.40
2018-11-22T01:32:49.475Z,21.90
2018-11-22T01:33:49.428Z,21.80
2018-11-22T01:34:49.412Z,22.10
2018-11-22T01:35:49.350Z,21.20
2018-11-22T01:36:49.307Z,22.00
2018-11-22T01:37:49.260Z,21.50
2018-11-22T01:38:49.218Z,21.80
2018-11-22T01:39:49.188Z,21.20
2018-11-22T01:40:49.124Z,21.20
2018-11-22T01:41:49.087Z,21.00
2018-11-22T01:42:49.040Z,21.20
2018-11-22T01:43:49.003Z,21.10
2018-11-22T01:44:48.974Z,21.10
2018-11-22T01:45:48.904Z,21.90
2018-11-22T01:46:48.856Z,20.50
2018-11-22T01:47:48.823Z,22.70
2018-11-22T01:48:48.778Z,22.20
2018-11-22T01:49:48.730Z,22.70
2018-11-22T01:50:48.718Z,22.90
2018-11-22T01:51:48.640Z,22.80
2018-11-22T01:52:48.591Z,22.20
2018-11-22T01:53:48.550Z,22.50
2018-11-22T01:54:48.508Z,23.40
2018-11-22T01:55:48.466Z,23.90
2018-11-22T01:56:48.450Z,23.70
2018-11-22T01:57:48.372Z,24.00
2018-11-22T01:58:48.328Z,24.40
2018-11-22T01:59:48.317Z,24.40
2018-11-22T02:00:48.248Z,24.00
2018-11-22T02:01:48.225Z,24.40
2018-11-22T02:02:48.159Z,22.90
2018-11-22T02:03:48.106Z,22.50
2018-11-22T02:04:48.064Z,22.40
2018-11-22T02:05:48.039Z,23.00
2018-11-22T02:06:48.019Z,23.40
2018-11-22T02:07:47.938Z,23.70
2018-11-22T02:08:47.892Z,24.00
2018-11-22T02:09:47.852Z,24.30
2018-11-22T02:10:47.804Z,24.60
2018-11-22T02:11:47.754Z,24.80
2018-11-22T02:12:47.733Z,23.40
2018-11-22T02:13:47.673Z,24.00
2018-11-22T02:14:47.631Z,23.60
2018-11-22T02:15:47.599Z,24.80
2018-11-22T02:16:47.533Z,24.20
2018-11-22T02:17:47.494Z,24.70
2018-11-22T02:18:47.443Z,24.70
2018-11-22T02:19:47.409Z,24.60
2018-11-22T02:20:47.389Z,24.40
2018-11-22T02:21:47.317Z,23.90
2018-11-22T02:22:47.278Z,24.30
2018-11-22T02:23:47.224Z,24.60
2018-11-22T02:24:47.183Z,24.60
2018-11-22T02:25:47.162Z,24.10
2018-11-22T02:26:47.089Z,23.50
2018-11-22T02:27:47.059Z,25.30
2018-11-22T02:28:47.008Z,24.50
2018-11-22T02:29:46.958Z,24.40
2018-11-22T02:30:46.913Z,25.00
2018-11-22T02:31:46.899Z,25.10
2018-11-22T02:32:46.831Z,25.50
2018-11-22T02:33:46.788Z,24.80
2018-11-22T02:34:46.746Z,25.10
2018-11-22T02:35:46.693Z,25.50
2018-11-22T02:36:46.679Z,24.50
2018-11-22T02:37:46.606Z,25.60
2018-11-22T02:38:46.563Z,25.10
2018-11-22T02:39:46.525Z,25.10
2018-11-22T02:40:46.481Z,26.20
2018-11-22T02:41:46.477Z,25.60
2018-11-22T02:42:46.392Z,25.40
2018-11-22T02:43:46.342Z,24.20
2018-11-22T02:44:46.299Z,25.30
2018-11-22T02:45:46.262Z,25.00
2018-11-22T02:46:46.212Z,25.60
2018-11-22T02:47:46.201Z,24.70
2018-11-22T02:48:46.125Z,26.90
2018-11-22T02:49:46.084Z,25.90
2018-11-22T02:50:46.036Z,26.70
2018-11-22T02:51:45.996Z,25.60
2018-11-22T02:52:45.979Z,26.20
2018-11-22T02:53:45.908Z,26.30
2018-11-22T02:54:45.866Z,26.70
2018-11-22T02:55:45.813Z,26.00
2018-11-22T02:56:45.769Z,26.80
2018-11-22T02:57:45.746Z,26.80
2018-11-22T02:58:45.678Z,26.30
2018-11-22T02:59:45.649Z,26.60
2018-11-22T03:00:45.600Z,25.90
2018-11-22T03:01:45.553Z,26.50
2018-11-22T03:02:45.532Z,26.60
2018-11-22T03:03:45.473Z,26.70
2018-11-22T03:04:45.434Z,26.10
2018-11-22T03:05:45.377Z,26.90
2018-11-22T03:06:45.338Z,26.60
2018-11-22T03:07:45.282Z,26.70
2018-11-22T03:08:45.265Z,26.60
2018-11-22T03:09:45.195Z,26.80
2018-11-22T03:10:45.153Z,26.50
2018-11-22T03:11:45.115Z,26.70
2018-11-22T03:12:45.072Z,26.80
2018-11-22T03:13:45.056Z,26.40
2018-11-22T03:14:44.984Z,26.90
2018-11-22T03:15:44.935Z,26.80
2018-11-22T03:16:44.887Z,26.60
2018-11-22T03:17:44.850Z,27.80
2018-11-22T03:18:44.829Z,26.80
2018-11-22T03:19:44.754Z,26.80
2018-11-22T03:20:44.710Z,27.10
2018-11-22T03:21:44.687Z,27.20
2018-11-22T03:22:44.620Z,27.50
2018-11-22T03:23:44.608Z,26.60
2018-11-22T03:24:44.538Z,27.80
2018-11-22T03:25:44.493Z,26.30
2018-11-22T03:26:44.478Z,26.70
2018-11-22T03:27:44.410Z,27.60
2018-11-22T03:28:44.357Z,27.00
2018-11-22T03:29:44.316Z,27.60
2018-11-22T03:30:44.273Z,26.40
2018-11-22T03:31:44.232Z,26.90
2018-11-22T03:32:44.217Z,26.80
2018-11-22T03:33:44.144Z,26.70
2018-11-22T03:34:44.092Z,25.70
2018-11-22T03:35:44.057Z,26.60
2018-11-22T03:36:44.012Z,25.60
2018-11-22T03:37:43.971Z,26.90
2018-11-22T03:38:43.951Z,27.60
2018-11-22T03:39:43.908Z,25.90
2018-11-22T03:40:43.828Z,26.70
2018-11-22T03:41:43.784Z,25.40
2018-11-22T03:42:43.740Z,26.30
2018-11-22T03:43:43.729Z,25.70
2018-11-22T03:44:43.658Z,25.80
2018-11-22T03:45:43.618Z,26.40
2018-11-22T03:46:43.569Z,26.60
2018-11-22T03:47:43.523Z,26.60
2018-11-22T03:48:43.500Z,28.80
2018-11-22T03:49:43.469Z,27.30
2018-11-22T03:50:43.395Z,27.80
2018-11-22T03:51:43.344Z,26.70
2018-11-22T03:52:43.298Z,28.50
2018-11-22T03:53:43.254Z,28.50
2018-11-22T03:54:43.212Z,29.10
2018-11-22T03:55:43.204Z,28.80
2018-11-22T03:56:43.135Z,28.80
2018-11-22T03:57:43.086Z,29.40
2018-11-22T03:58:43.044Z,29.60
2018-11-22T03:59:42.993Z,28.90
2018-11-22T04:00:42.972Z,29.70
2018-11-22T04:01:42.904Z,30.60
2018-11-22T04:02:42.863Z,29.80
2018-11-22T04:03:42.824Z,30.50
2018-11-22T04:04:42.776Z,29.70
2018-11-22T04:05:42.745Z,30.40
2018-11-22T04:06:42.678Z,31.00
2018-11-22T04:07:42.648Z,31.20
2018-11-22T04:08:42.600Z,31.10
2018-11-22T04:09:42.559Z,30.90
2018-11-22T04:10:42.544Z,32.10
2018-11-22T04:11:42.463Z,31.40
2018-11-22T04:12:42.417Z,31.20
2018-11-22T04:13:42.378Z,30.50
2018-11-22T04:14:42.331Z,31.10
2018-11-22T04:15:42.299Z,31.30
2018-11-22T04:16:42.272Z,31.30
2018-11-22T04:17:42.201Z,32.80
2018-11-22T04:18:42.155Z,32.00
2018-11-22T04:19:42.110Z,30.30
2018-11-22T04:20:42.062Z,30.90
2018-11-22T04:21:42.059Z,31.30
2018-11-22T04:22:42.008Z,31.10
2018-11-22T04:23:41.932Z,31.30
2018-11-22T04:24:41.886Z,31.90
2018-11-22T04:25:41.843Z,31.60
2018-11-22T04:26:41.798Z,31.80
2018-11-22T04:27:41.789Z,32.50
2018-11-22T04:28:41.755Z,30.80
2018-11-22T04:29:41.679Z,32.10
2018-11-22T04:30:41.628Z,32.50
2018-11-22T04:31:41.580Z,30.90
2018-11-22T04:32:41.559Z,31.30
2018-11-22T04:33:41.491Z,31.30
2018-11-22T04:34:41.445Z,32.90
2018-11-22T04:35:41.410Z,31.90
2018-11-22T04:36:41.360Z,33.70
2018-11-22T04:37:41.335Z,33.00
2018-11-22T04:38:41.266Z,32.70
2018-11-22T04:39:41.233Z,30.50
2018-11-22T04:40:41.181Z,32.20
2018-11-22T04:41:41.148Z,31.70
2018-11-22T04:42:41.125Z,31.90
2018-11-22T04:43:41.053Z,31.40
2018-11-22T04:44:41.000Z,33.60
2018-11-22T04:45:40.957Z,31.90
2018-11-22T04:46:40.911Z,31.60
2018-11-22T04:47:40.901Z,30.90
2018-11-22T04:48:40.831Z,32.90
2018-11-22T04:49:40.788Z,31.20
2018-11-22T04:50:40.745Z,32.60
2018-11-22T04:51:40.695Z,32.60
2018-11-22T04:52:40.678Z,31.20
2018-11-22T04:53:40.609Z,32.30
2018-11-22T04:54:40.565Z,32.10
2018-11-22T04:55:40.536Z,32.70
2018-11-22T04:56:40.469Z,32.50
2018-11-22T04:57:40.457Z,31.80
2018-11-22T04:58:40.383Z,33.40
2018-11-22T04:59:40.344Z,32.20
2018-11-22T05:00:40.304Z,32.70
2018-11-22T05:01:40.252Z,32.70
2018-11-22T05:02:40.215Z,34.60
2018-11-22T05:03:40.194Z,32.50
2018-11-22T05:04:40.117Z,32.40
2018-11-22T05:05:40.072Z,32.80
2018-11-22T05:06:40.031Z,33.40
2018-11-22T05:07:39.994Z,32.90
2018-11-22T05:08:39.947Z,32.80
2018-11-22T05:09:39.919Z,32.00
2018-11-22T05:10:39.853Z,31.90
2018-11-22T05:11:39.815Z,32.70
2018-11-22T05:12:39.772Z,32.90
2018-11-22T05:13:39.747Z,32.90
2018-11-22T05:14:39.677Z,31.90
2018-11-22T05:15:39.629Z,34.50
2018-11-22T05:16:39.584Z,32.10
2018-11-22T05:17:39.541Z,33.40
2018-11-22T05:18:39.523Z,33.40
2018-11-22T05:19:39.480Z,35.90
2018-11-22T05:20:39.413Z,33.70
2018-11-22T05:21:39.369Z,32.90
2018-11-22T05:22:39.328Z,32.10
2018-11-22T05:23:39.278Z,32.20
2018-11-22T05:24:39.253Z,32.30
2018-11-22T05:25:39.198Z,32.90
2018-11-22T05:26:39.149Z,32.80
2018-11-22T05:27:39.098Z,35.00
2018-11-22T05:28:39.059Z,32.30
2018-11-22T05:29:39.037Z,34.70
2018-11-22T05:30:38.966Z,33.40
2018-11-22T05:31:38.925Z,35.20
2018-11-22T05:32:38.883Z,34.40
2018-11-22T05:33:38.835Z,33.50
2018-11-22T05:34:38.794Z,34.80
2018-11-22T05:35:38.773Z,34.50
2018-11-22T05:36:38.697Z,35.10
2018-11-22T05:37:38.653Z,33.90
2018-11-22T05:38:38.609Z,35.40
2018-11-22T05:39:38.575Z,32.00
2018-11-22T05:40:38.544Z,33.00
2018-11-22T05:41:39.534Z,34.00
2018-11-22T05:42:38.434Z,33.20
2018-11-22T05:43:38.394Z,35.40
2018-11-22T05:44:38.349Z,33.20
2018-11-22T05:45:38.305Z,33.40
2018-11-22T05:46:38.293Z,34.60
2018-11-22T05:47:38.209Z,33.70
2018-11-22T05:48:38.175Z,34.60
2018-11-22T05:49:38.120Z,34.40
2018-11-22T05:50:38.081Z,34.40
2018-11-22T05:51:38.040Z,33.50
2018-11-22T05:52:38.025Z,33.20
2018-11-22T05:53:37.950Z,33.30
2018-11-22T05:54:37.906Z,33.40
2018-11-22T05:55:37.854Z,34.30
2018-11-22T05:56:37.815Z,34.50
2018-11-22T05:57:37.774Z,34.70
2018-11-22T05:58:37.750Z,33.30
2018-11-22T05:59:37.676Z,34.90
2018-11-22T06:00:37.642Z,33.90
2018-11-22T06:01:37.587Z,33.80
2018-11-22T06:02:37.549Z,33.20
2018-11-22T06:03:37.536Z,33.40
2018-11-22T06:04:37.466Z,35.10
2018-11-22T06:05:37.420Z,36.00
2018-11-22T06:06:37.377Z,34.40
2018-11-22T06:07:37.322Z,33.90
2018-11-22T06:08:37.299Z,33.10
2018-11-22T06:09:37.245Z,33.60
2018-11-22T06:10:37.200Z,34.80
2018-11-22T06:11:37.151Z,33.00
2018-11-22T06:12:37.115Z,34.40
2018-11-22T06:13:37.079Z,33.80
2018-11-22T06:14:37.022Z,33.70
2018-11-22T06:15:36.977Z,37.30
2018-11-22T06:16:36.940Z,33.40
2018-11-22T06:17:36.882Z,33.30
2018-11-22T06:18:36.849Z,35.30
2018-11-22T06:19:36.810Z,33.70
2018-11-22T06:20:36.752Z,32.90
2018-11-22T06:21:36.698Z,34.00
2018-11-22T06:22:36.660Z,35.40
2018-11-22T06:23:36.619Z,34.90
2018-11-22T06:24:36.603Z,34.00
2018-11-22T06:25:36.530Z,34.60
2018-11-22T06:26:36.484Z,35.10
2018-11-22T06:27:36.433Z,33.60
2018-11-22T06:28:36.393Z,34.30
2018-11-22T06:29:36.356Z,34.10
2018-11-22T06:30:36.329Z,34.60
2018-11-22T06:31:36.259Z,35.40
2018-11-22T06:32:36.216Z,36.10
2018-11-22T06:33:36.169Z,33.90
2018-11-22T06:34:36.144Z,34.80
2018-11-22T06:35:36.083Z,33.90
2018-11-22T06:36:36.044Z,32.70
2018-11-22T06:37:36.023Z,34.10
2018-11-22T06:38:35.954Z,33.80
2018-11-22T06:39:35.928Z,34.90
2018-11-22T06:40:35.855Z,33.30
2018-11-22T06:41:35.811Z,32.80
2018-11-22T06:42:35.792Z,36.20
2018-11-22T06:43:35.729Z,34.80
2018-11-22T06:44:35.719Z,35.50
2018-11-22T06:45:35.635Z,35.50
2018-11-22T06:46:35.593Z,34.50
2018-11-22T06:47:35.559Z,34.30
2018-11-22T06:48:35.505Z,35.80
2018-11-22T06:49:35.466Z,35.40
2018-11-22T06:50:35.454Z,34.50
2018-11-22T06:51:35.369Z,34.50
2018-11-22T06:52:35.323Z,33.20
2018-11-22T06:53:35.277Z,34.60
2018-11-22T06:54:35.232Z,34.00
2018-11-22T06:55:35.196Z,35.00
2018-11-22T06:56:35.175Z,33.70
2018-11-22T06:57:35.111Z,33.30
2018-11-22T06:58:35.069Z,34.00
2018-11-22T06:59:35.015Z,33.70
2018-11-22T07:00:34.969Z,33.80
2018-11-22T07:01:35.396Z,34.20
2018-11-22T07:02:34.900Z,34.00
2018-11-22T07:03:34.859Z,34.60
2018-11-22T07:04:34.789Z,34.80
2018-11-22T07:05:34.745Z,35.20
2018-11-22T07:06:34.704Z,33.80
2018-11-22T07:07:34.700Z,33.30
2018-11-22T07:08:34.650Z,34.00
2018-11-22T07:09:34.575Z,35.20
2018-11-22T07:10:34.532Z,33.80
2018-11-22T07:11:34.487Z,34.60
2018-11-22T07:12:34.434Z,36.10
2018-11-22T07:13:34.390Z,33.40
2018-11-22T07:14:34.371Z,32.60
2018-11-22T07:15:34.317Z,33.50
2018-11-22T07:16:34.271Z,32.90
2018-11-22T07:17:34.215Z,33.70
2018-11-22T07:18:34.194Z,33.30
2018-11-22T07:19:34.164Z,34.70
2018-11-22T07:20:34.091Z,33.90
2018-11-22T07:21:34.044Z,34.10
2018-11-22T07:22:34.004Z,33.40
2018-11-22T07:23:33.954Z,33.90
2018-11-22T07:24:33.932Z,33.40
2018-11-22T07:25:33.888Z,34.20
2018-11-22T07:26:33.818Z,32.80
2018-11-22T07:27:38.253Z,34.10
2018-11-22T07:28:33.732Z,34.70
2018-11-22T07:29:33.690Z,33.40
2018-11-22T07:30:33.645Z,33.70
2018-11-22T07:31:33.622Z,33.90
2018-11-22T07:32:33.561Z,33.20
2018-11-22T07:33:38.140Z,34.50
2018-11-22T07:34:33.472Z,34.90
2018-11-22T07:35:33.414Z,34.50
2018-11-22T07:36:33.400Z,33.80
2018-11-22T07:37:33.348Z,34.90
2018-11-22T07:38:33.284Z,33.90
2018-11-22T07:39:33.245Z,34.30
2018-11-22T07:40:33.200Z,35.00
2018-11-22T07:41:33.182Z,32.60
2018-11-22T07:42:33.124Z,34.30
2018-11-22T07:43:33.061Z,33.70
2018-11-22T07:44:33.022Z,34.30
2018-11-22T07:45:33.003Z,34.30
2018-11-22T07:46:32.930Z,33.00
2018-11-22T07:47:32.896Z,33.90
2018-11-22T07:48:32.848Z,33.70
2018-11-22T07:49:32.808Z,33.00
2018-11-22T07:50:32.780Z,33.20
2018-11-22T07:51:32.741Z,33.80
2018-11-22T07:52:32.720Z,33.10
2018-11-22T07:53:32.629Z,33.40
2018-11-22T07:54:32.589Z,32.30
2018-11-22T07:55:32.563Z,32.80
2018-11-22T07:56:32.517Z,33.20
2018-11-22T07:57:32.446Z,32.80
2018-11-22T07:58:32.403Z,32.00
2018-11-22T07:59:32.367Z,34.00
2018-11-22T08:00:32.319Z,33.20
2018-11-22T08:01:32.298Z,33.20
2018-11-22T08:02:32.233Z,33.30
2018-11-22T08:03:32.182Z,33.30
2018-11-22T08:04:32.137Z,33.10
2018-11-22T08:05:32.103Z,35.20
2018-11-22T08:06:32.084Z,33.80
2018-11-22T08:07:32.007Z,33.40
2018-11-22T08:08:31.961Z,33.20
2018-11-22T08:09:31.921Z,33.70
2018-11-22T08:10:31.877Z,33.30
2018-11-22T08:11:31.861Z,33.30
2018-11-22T08:12:31.852Z,32.90
2018-11-22T08:13:31.772Z,33.00
2018-11-22T08:14:31.712Z,32.80
2018-11-22T08:15:31.656Z,32.80
2018-11-22T08:16:31.637Z,33.40
2018-11-22T08:17:31.571Z,33.60
2018-11-22T08:18:31.547Z,33.50
2018-11-22T08:19:31.489Z,32.20
2018-11-22T08:20:31.439Z,32.40
2018-11-22T08:21:38.211Z,33.20
2018-11-22T08:22:31.347Z,32.90
2018-11-22T08:23:31.344Z,32.20
2018-11-22T08:24:31.267Z,32.70
2018-11-22T08:25:31.225Z,32.50
2018-11-22T08:26:31.180Z,31.50
2018-11-22T08:27:31.136Z,31.30
2018-11-22T08:28:31.089Z,31.40
2018-11-22T08:29:31.070Z,32.10
2018-11-22T08:30:31.000Z,32.30
2018-11-22T08:31:30.962Z,32.40
2018-11-22T08:32:30.921Z,33.30
2018-11-22T08:33:30.883Z,32.10
2018-11-22T08:34:30.841Z,32.10
2018-11-22T08:35:30.805Z,32.00
2018-11-22T08:36:30.739Z,33.20
2018-11-22T08:37:30.708Z,33.10
2018-11-22T08:38:30.665Z,32.90
2018-11-22T08:39:30.615Z,32.80
2018-11-22T08:40:30.587Z,32.20
2018-11-22T08:41:30.547Z,32.90
2018-11-22T08:42:30.482Z,31.90
2018-11-22T08:43:30.466Z,31.10
2018-11-22T08:44:30.399Z,31.10
2018-11-22T08:45:30.381Z,32.70
2018-11-22T08:46:30.310Z,32.60
2018-11-22T08:47:30.261Z,32.90
2018-11-22T08:48:30.223Z,32.10
2018-11-22T08:49:30.176Z,33.70
2018-11-22T08:50:30.157Z,32.50
2018-11-22T08:51:30.098Z,33.50
2018-11-22T08:52:30.055Z,33.10
2018-11-22T08:53:36.936Z,32.70
2018-11-22T08:54:29.960Z,32.80
2018-11-22T08:55:29.924Z,33.90
2018-11-22T08:56:29.879Z,32.50
2018-11-22T08:57:29.843Z,32.40
2018-11-22T08:58:29.819Z,33.00
2018-11-22T08:59:29.745Z,32.60
2018-11-22T09:00:29.700Z,33.60
2018-11-22T09:01:29.654Z,32.50
2018-11-22T09:02:29.642Z,31.70
2018-11-22T09:03:29.576Z,33.10
2018-11-22T09:04:50.527Z,32.70
2018-11-22T09:05:29.488Z,32.80
2018-11-22T09:06:29.440Z,33.70
2018-11-22T09:07:29.420Z,33.80
2018-11-22T09:08:29.359Z,32.90
2018-11-22T09:09:29.341Z,33.70
2018-11-22T09:10:29.275Z,33.90
2018-11-22T09:11:29.221Z,34.40
2018-11-22T09:12:29.174Z,34.20
2018-11-22T09:13:29.139Z,33.80
2018-11-22T09:14:29.697Z,32.80
2018-11-22T09:15:31.424Z,34.60
2018-11-22T09:16:29.012Z,34.70
2018-11-22T09:17:28.967Z,34.60
2018-11-22T09:18:28.918Z,35.20
2018-11-22T09:19:28.915Z,35.20
2018-11-22T09:20:28.831Z,35.60
2018-11-22T09:21:28.786Z,33.00
2018-11-22T09:22:28.750Z,34.30
2018-11-22T09:23:28.704Z,36.10
2018-11-22T09:24:28.656Z,34.10
2018-11-22T09:25:28.640Z,34.00
2018-11-22T09:26:28.577Z,35.00
2018-11-22T09:27:28.540Z,33.70
2018-11-22T09:28:28.492Z,33.80
2018-11-22T09:29:28.446Z,33.90
2018-11-22T09:30:28.395Z,35.10
2018-11-22T09:31:28.377Z,34.70
2018-11-22T09:32:28.313Z,33.80
2018-11-22T09:33:28.266Z,33.20
2018-11-22T09:34:28.228Z,34.00
2018-11-22T09:35:28.186Z,34.30
2018-11-22T09:36:28.168Z,35.30
2018-11-22T09:37:28.098Z,34.40
2018-11-22T09:38:28.047Z,33.90
2018-11-22T09:39:28.009Z,33.40
2018-11-22T09:40:27.967Z,35.10
2018-11-22T09:41:27.921Z,33.80
2018-11-22T09:42:27.903Z,32.80
2018-11-22T09:43:27.833Z,32.50
2018-11-22T09:44:27.789Z,29.30
2018-11-22T09:45:27.745Z,31.30
2018-11-22T09:46:27.712Z,31.20
2018-11-22T09:47:27.667Z,29.70
2018-11-22T09:48:27.648Z,29.00
2018-11-22T09:49:27.579Z,30.40
2018-11-22T09:50:27.527Z,32.60
2018-11-22T09:51:27.488Z,31.10
2018-11-22T09:52:27.467Z,31.70
2018-11-22T09:53:27.400Z,30.60
2018-11-22T09:54:27.361Z,31.70
2018-11-22T09:55:27.317Z,31.00
2018-11-22T09:56:27.268Z,30.90
2018-11-22T09:57:27.224Z,30.80
2018-11-22T09:58:27.225Z,31.70
2018-11-22T09:59:27.143Z,30.70
2018-11-22T10:00:27.099Z,30.40
2018-11-22T10:01:27.058Z,32.60
2018-11-22T10:02:27.032Z,31.80
2018-11-22T10:03:26.967Z,34.10
2018-11-22T10:04:26.920Z,33.10
2018-11-22T10:05:27.000Z,31.30
2018-11-22T10:06:26.841Z,30.70
2018-11-22T10:07:26.831Z,32.60
2018-11-22T10:08:26.791Z,32.60
2018-11-22T10:09:26.715Z,32.90
2018-11-22T10:10:26.655Z,32.00
2018-11-22T10:11:26.620Z,31.00
2018-11-22T10:12:26.644Z,30.20
2018-11-22T10:13:26.563Z,29.40
2018-11-22T10:14:26.494Z,29.00
2018-11-22T10:15:26.441Z,27.50
2018-11-22T10:16:26.404Z,29.10
2018-11-22T10:17:26.385Z,29.00
2018-11-22T10:18:26.345Z,29.70
2018-11-22T10:19:26.273Z,30.10
2018-11-22T10:20:26.233Z,29.00
2018-11-22T10:21:26.185Z,27.10
2018-11-22T10:22:26.187Z,28.70
2018-11-22T10:23:26.097Z,27.70
2018-11-22T10:24:26.119Z,27.70
2018-11-22T10:25:26.004Z,27.80
2018-11-22T10:26:25.969Z,28.50
2018-11-22T10:27:25.953Z,27.60
2018-11-22T10:28:25.876Z,28.60
2018-11-22T10:29:25.861Z,27.80
2018-11-22T10:30:25.836Z,28.00
2018-11-22T10:31:25.765Z,28.00
2018-11-22T10:32:25.709Z,27.10
2018-11-22T10:33:25.694Z,27.70
2018-11-22T10:34:25.615Z,26.20
2018-11-22T10:35:25.650Z,26.90
2018-11-22T10:36:25.529Z,27.80
2018-11-22T10:37:25.485Z,26.80
2018-11-22T10:38:25.539Z,27.20
2018-11-22T10:39:25.408Z,25.60
2018-11-22T10:40:25.358Z,27.50
2018-11-22T10:41:25.343Z,26.30
2018-11-22T10:42:25.304Z,27.10
2018-11-22T10:43:25.247Z,26.20
2018-11-22T10:44:25.186Z,26.60
2018-11-22T10:45:25.145Z,28.10
2018-11-22T10:46:25.095Z,27.00
2018-11-22T10:47:25.081Z,27.70
2018-11-22T10:48:25.036Z,27.80
2018-11-22T10:49:24.966Z,27.60
2018-11-22T10:50:24.930Z,28.80
2018-11-22T10:51:24.887Z,28.50
2018-11-22T10:52:24.844Z,28.70
2018-11-22T10:53:24.826Z,28.50
2018-11-22T10:54:24.750Z,28.50
2018-11-22T10:55:24.705Z,29.20
2018-11-22T10:56:24.660Z,29.90
2018-11-22T10:57:24.619Z,29.10
2018-11-22T10:58:24.586Z,29.20
2018-11-22T10:59:24.557Z,30.20
2018-11-22T11:00:24.485Z,30.10
2018-11-22T11:01:24.440Z,29.50
2018-11-22T11:02:24.409Z,30.40
2018-11-22T11:03:24.363Z,29.90
2018-11-22T11:04:24.343Z,30.50
2018-11-22T11:05:24.274Z,30.50
2018-11-22T11:06:24.222Z,30.60
2018-11-22T11:07:24.181Z,32.40
2018-11-22T11:08:24.138Z,30.10
2018-11-22T11:09:24.124Z,31.10
2018-11-22T11:10:24.058Z,31.80
2018-11-22T11:11:24.018Z,32.10
2018-11-22T11:12:25.557Z,30.40
2018-11-22T11:13:23.935Z,30.50
2018-11-22T11:14:23.876Z,30.00
2018-11-22T11:15:23.855Z,32.00
2018-11-22T11:16:23.796Z,29.50
2018-11-22T11:17:23.751Z,29.20
2018-11-22T11:18:23.703Z,30.30
2018-11-22T11:19:23.662Z,29.70
2018-11-22T11:20:23.640Z,31.10
2018-11-22T11:21:23.573Z,32.40
2018-11-22T11:22:23.536Z,29.60
2018-11-22T11:23:23.492Z,30.00
2018-11-22T11:24:23.554Z,29.80
2018-11-22T11:25:23.423Z,30.10
2018-11-22T11:26:23.379Z,29.50
2018-11-22T11:27:23.310Z,29.00
2018-11-22T11:28:23.265Z,29.40
2018-11-22T11:29:23.225Z,30.00
2018-11-22T11:30:23.211Z,32.00
2018-11-22T11:31:23.166Z,31.40
2018-11-22T11:32:23.095Z,31.20
2018-11-22T11:33:23.048Z,29.90
2018-11-22T11:34:23.011Z,29.80
2018-11-22T11:35:22.969Z,29.40
2018-11-22T11:36:22.951Z,29.90
2018-11-22T11:37:32.358Z,29.70
2018-11-22T11:38:32.903Z,30.60
2018-11-22T11:39:22.796Z,29.70
2018-11-22T11:40:22.752Z,30.30
2018-11-22T11:41:22.709Z,29.60
2018-11-22T11:42:22.685Z,29.80
2018-11-22T11:43:22.616Z,30.40
2018-11-22T11:44:22.581Z,30.10
2018-11-22T11:45:22.535Z,28.90
2018-11-22T11:46:22.486Z,29.80
2018-11-22T11:47:22.469Z,30.30
2018-11-22T11:48:22.398Z,30.20
2018-11-22T11:49:22.357Z,30.50
2018-11-22T11:50:22.322Z,30.00
2018-11-22T11:51:22.282Z,30.00
2018-11-22T11:52:22.258Z,31.80
2018-11-22T11:53:27.102Z,30.30
2018-11-22T11:54:22.144Z,30.40
2018-11-22T11:55:22.102Z,30.50
2018-11-22T11:56:22.078Z,31.70
2018-11-22T11:57:22.014Z,30.10
2018-11-22T11:58:22.000Z,31.50
2018-11-22T11:59:21.938Z,30.30
2018-11-22T12:00:21.894Z,29.90
2018-11-22T12:01:21.848Z,32.10
2018-11-22T12:02:21.811Z,31.30
2018-11-22T12:03:21.788Z,29.20
2018-11-22T12:04:21.723Z,30.40
2018-11-22T12:05:21.681Z,30.70
2018-11-22T12:06:21.632Z,29.70
2018-11-22T12:07:21.590Z,29.80
2018-11-22T12:08:21.575Z,30.70
2018-11-22T12:09:21.510Z,30.30
2018-11-22T12:10:21.461Z,30.30
2018-11-22T12:11:21.416Z,29.30
2018-11-22T12:12:21.378Z,30.50
2018-11-22T12:13:21.364Z,30.60
2018-11-22T12:14:21.302Z,28.40
2018-11-22T12:15:21.255Z,29.20
2018-11-22T12:16:21.209Z,28.70
2018-11-22T12:17:21.189Z,30.20
2018-11-22T12:18:21.130Z,30.40
2018-11-22T12:19:21.113Z,30.90
2018-11-22T12:20:21.065Z,32.70
2018-11-22T12:21:21.001Z,31.30
2018-11-22T12:22:20.952Z,30.70
2018-11-22T12:23:20.914Z,28.70
2018-11-22T12:24:20.889Z,30.40
2018-11-22T12:25:20.829Z,31.20
2018-11-22T12:26:20.792Z,30.20
2018-11-22T12:27:20.746Z,30.30
2018-11-22T12:28:20.733Z,32.50
2018-11-22T12:29:20.662Z,30.80
2018-11-22T12:30:20.612Z,29.20
2018-11-22T12:31:20.569Z,30.50
2018-11-22T12:32:20.540Z,30.10
2018-11-22T12:33:20.491Z,30.00
2018-11-22T12:34:20.463Z,31.00
2018-11-22T12:35:20.396Z,29.80
2018-11-22T12:36:20.356Z,30.70
2018-11-22T12:37:20.311Z,29.60
2018-11-22T12:38:20.274Z,29.40
2018-11-22T12:39:20.255Z,32.90
2018-11-22T12:40:20.191Z,30.00
2018-11-22T12:41:20.147Z,30.40
2018-11-22T12:42:20.097Z,29.80
2018-11-22T12:43:20.055Z,31.20
2018-11-22T12:44:20.035Z,29.00
2018-11-22T12:45:19.971Z,30.00
2018-11-22T12:46:19.941Z,30.70
2018-11-22T12:47:28.943Z,30.90
2018-11-22T12:48:19.850Z,30.80
2018-11-22T12:49:19.841Z,31.50
2018-11-22T12:50:19.760Z,31.90
2018-11-22T12:51:19.718Z,30.80
2018-11-22T12:52:19.668Z,30.30